sensor_id;sensor_type;location;lat;lon;timestamp;temperature;humidity
7658;DHT22;8462;53.156;8.220;2023-07-20T00:02:03;17.60;99.90
7658;DHT22;8462;53.156;8.220;2023-07-20T00:04:31;17.60;99.90
7658;DHT22;8462;53.156;8.220;2023-07-20T00:06:58;17.60;99.90
7658;DHT22;8462;53.156;8.220;2023-07-20T00:09:26;17.60;99.90
7658;DHT22;8462;53.156;8.220;2023-07-20T00:11:54;17.60;99.90
7658;DHT22;8462;53.156;8.220;2023-07-20T00:14:21;17.60;99.90
7658;DHT22;8462;53.156;8.220;2023-07-20T00:16:50;17.60;99.90
7658;DHT22;8462;53.156;8.220;2023-07-20T00:19:21;17.60;99.90
7658;DHT22;8462;53.156;8.220;2023-07-20T00:21:48;17.60;99.90
7658;DHT22;8462;53.156;8.220;2023-07-20T00:24:15;17.70;99.90
7658;DHT22;8462;53.156;8.220;2023-07-20T00:26:42;17.70;99.90
7658;DHT22;8462;53.156;8.220;2023-07-20T00:29:10;17.80;99.90
7658;DHT22;8462;53.156;8.220;2023-07-20T00:31:39;17.70;99.90
7658;DHT22;8462;53.156;8.220;2023-07-20T00:34:06;17.80;99.90
7658;DHT22;8462;53.156;8.220;2023-07-20T00:36:33;17.80;99.90
7658;DHT22;8462;53.156;8.220;2023-07-20T00:39:01;17.80;99.90
7658;DHT22;8462;53.156;8.220;2023-07-20T00:41:28;17.80;99.90
7658;DHT22;8462;53.156;8.220;2023-07-20T00:43:55;17.70;99.90
7658;DHT22;8462;53.156;8.220;2023-07-20T00:46:24;17.70;99.90
7658;DHT22;8462;53.156;8.220;2023-07-20T00:48:52;17.60;99.90
7658;DHT22;8462;53.156;8.220;2023-07-20T00:51:20;17.70;99.90
7658;DHT22;8462;53.156;8.220;2023-07-20T00:53:48;17.70;99.90
7658;DHT22;8462;53.156;8.220;2023-07-20T00:56:15;17.70;99.90
7658;DHT22;8462;53.156;8.220;2023-07-20T00:58:42;17.60;99.90
7658;DHT22;8462;53.156;8.220;2023-07-20T01:01:09;17.50;99.90
7658;DHT22;8462;53.156;8.220;2023-07-20T01:03:37;17.60;99.90
7658;DHT22;8462;53.156;8.220;2023-07-20T01:06:12;17.60;99.90
7658;DHT22;8462;53.156;8.220;2023-07-20T01:08:47;17.50;99.90
7658;DHT22;8462;53.156;8.220;2023-07-20T01:11:22;17.50;99.90
7658;DHT22;8462;53.156;8.220;2023-07-20T01:13:50;17.40;99.90
7658;DHT22;8462;53.156;8.220;2023-07-20T01:16:17;17.40;99.90
7658;DHT22;8462;53.156;8.220;2023-07-20T01:18:46;17.30;99.90
7658;DHT22;8462;53.156;8.220;2023-07-20T01:21:17;17.30;99.90
7658;DHT22;8462;53.156;8.220;2023-07-20T01:24:05;17.30;99.90
7658;DHT22;8462;53.156;8.220;2023-07-20T01:30:02;17.30;99.90
7658;DHT22;8462;53.156;8.220;2023-07-20T01:32:33;17.30;99.90
7658;DHT22;8462;53.156;8.220;2023-07-20T01:35:02;17.30;99.90
7658;DHT22;8462;53.156;8.220;2023-07-20T01:37:34;17.40;99.90
7658;DHT22;8462;53.156;8.220;2023-07-20T01:40:01;17.40;99.90
7658;DHT22;8462;53.156;8.220;2023-07-20T01:42:28;17.50;99.90
7658;DHT22;8462;53.156;8.220;2023-07-20T01:44:55;17.50;99.90
7658;DHT22;8462;53.156;8.220;2023-07-20T01:47:24;17.50;99.90
7658;DHT22;8462;53.156;8.220;2023-07-20T01:49:53;17.50;99.90
7658;DHT22;8462;53.156;8.220;2023-07-20T01:52:21;17.50;99.90
7658;DHT22;8462;53.156;8.220;2023-07-20T01:54:48;17.50;99.90
7658;DHT22;8462;53.156;8.220;2023-07-20T01:57:14;17.50;99.90
7658;DHT22;8462;53.156;8.220;2023-07-20T01:59:42;17.50;99.90
7658;DHT22;8462;53.156;8.220;2023-07-20T02:02:08;17.50;99.90
7658;DHT22;8462;53.156;8.220;2023-07-20T02:04:35;17.50;99.90
7658;DHT22;8462;53.156;8.220;2023-07-20T02:07:04;17.50;99.90
7658;DHT22;8462;53.156;8.220;2023-07-20T02:09:31;17.50;99.90
7658;DHT22;8462;53.156;8.220;2023-07-20T02:11:58;17.50;99.90
7658;DHT22;8462;53.156;8.220;2023-07-20T02:14:25;17.50;99.90
7658;DHT22;8462;53.156;8.220;2023-07-20T02:16:52;17.50;99.90
7658;DHT22;8462;53.156;8.220;2023-07-20T02:19:26;17.50;99.90
7658;DHT22;8462;53.156;8.220;2023-07-20T02:21:53;17.40;99.90
7658;DHT22;8462;53.156;8.220;2023-07-20T02:24:21;17.40;99.90
7658;DHT22;8462;53.156;8.220;2023-07-20T02:26:48;17.40;99.90
7658;DHT22;8462;53.156;8.220;2023-07-20T02:29:15;17.50;99.90
7658;DHT22;8462;53.156;8.220;2023-07-20T02:31:42;17.50;99.90
7658;DHT22;8462;53.156;8.220;2023-07-20T02:34:09;17.50;99.90
7658;DHT22;8462;53.156;8.220;2023-07-20T02:36:36;17.40;99.90
7658;DHT22;8462;53.156;8.220;2023-07-20T02:39:03;17.40;99.90
7658;DHT22;8462;53.156;8.220;2023-07-20T02:41:33;17.50;99.90
7658;DHT22;8462;53.156;8.220;2023-07-20T02:44:00;17.50;99.90
7658;DHT22;8462;53.156;8.220;2023-07-20T02:46:29;17.60;99.90
7658;DHT22;8462;53.156;8.220;2023-07-20T02:48:56;17.60;99.90
7658;DHT22;8462;53.156;8.220;2023-07-20T02:51:23;17.60;99.90
7658;DHT22;8462;53.156;8.220;2023-07-20T02:53:50;17.60;99.90
7658;DHT22;8462;53.156;8.220;2023-07-20T02:56:17;17.60;99.90
7658;DHT22;8462;53.156;8.220;2023-07-20T02:58:45;17.60;99.90
7658;DHT22;8462;53.156;8.220;2023-07-20T03:01:12;17.60;99.90
7658;DHT22;8462;53.156;8.220;2023-07-20T03:03:40;17.50;99.90
7658;DHT22;8462;53.156;8.220;2023-07-20T03:06:12;17.50;99.90
7658;DHT22;8462;53.156;8.220;2023-07-20T03:08:40;17.40;99.90
7658;DHT22;8462;53.156;8.220;2023-07-20T03:11:10;17.40;99.90
7658;DHT22;8462;53.156;8.220;2023-07-20T03:13:38;17.40;99.90
7658;DHT22;8462;53.156;8.220;2023-07-20T03:16:07;17.40;99.90
7658;DHT22;8462;53.156;8.220;2023-07-20T03:18:37;17.40;99.90
7658;DHT22;8462;53.156;8.220;2023-07-20T03:21:05;17.40;99.90
7658;DHT22;8462;53.156;8.220;2023-07-20T03:23:32;17.40;99.90
7658;DHT22;8462;53.156;8.220;2023-07-20T03:25:59;17.40;99.90
7658;DHT22;8462;53.156;8.220;2023-07-20T03:28:26;17.40;99.90
7658;DHT22;8462;53.156;8.220;2023-07-20T03:30:53;17.40;99.90
7658;DHT22;8462;53.156;8.220;2023-07-20T03:33:24;17.50;99.90
7658;DHT22;8462;53.156;8.220;2023-07-20T03:35:51;17.40;99.90
7658;DHT22;8462;53.156;8.220;2023-07-20T03:38:18;17.30;99.90
7658;DHT22;8462;53.156;8.220;2023-07-20T03:40:51;17.30;99.90
7658;DHT22;8462;53.156;8.220;2023-07-20T03:43:19;17.30;99.90
7658;DHT22;8462;53.156;8.220;2023-07-20T03:45:46;17.20;99.90
7658;DHT22;8462;53.156;8.220;2023-07-20T03:48:15;17.20;99.90
7658;DHT22;8462;53.156;8.220;2023-07-20T03:50:44;17.20;99.90
7658;DHT22;8462;53.156;8.220;2023-07-20T03:53:11;17.20;99.90
7658;DHT22;8462;53.156;8.220;2023-07-20T03:55:38;17.20;99.90
7658;DHT22;8462;53.156;8.220;2023-07-20T03:58:06;17.10;99.90
7658;DHT22;8462;53.156;8.220;2023-07-20T04:00:33;17.10;99.90
7658;DHT22;8462;53.156;8.220;2023-07-20T04:03:00;17.10;99.90
7658;DHT22;8462;53.156;8.220;2023-07-20T04:05:27;17.00;99.90
7658;DHT22;8462;53.156;8.220;2023-07-20T04:07:56;17.10;99.90
7658;DHT22;8462;53.156;8.220;2023-07-20T04:10:23;17.10;99.90
7658;DHT22;8462;53.156;8.220;2023-07-20T04:12:51;17.10;99.90
7658;DHT22;8462;53.156;8.220;2023-07-20T04:15:18;17.10;99.90
7658;DHT22;8462;53.156;8.220;2023-07-20T04:17:45;17.10;99.90
7658;DHT22;8462;53.156;8.220;2023-07-20T04:20:12;17.10;99.90
7658;DHT22;8462;53.156;8.220;2023-07-20T04:22:40;17.10;99.90
7658;DHT22;8462;53.156;8.220;2023-07-20T04:25:11;17.10;99.90
7658;DHT22;8462;53.156;8.220;2023-07-20T04:27:38;17.10;99.90
7658;DHT22;8462;53.156;8.220;2023-07-20T04:30:07;17.10;99.90
7658;DHT22;8462;53.156;8.220;2023-07-20T04:32:34;17.20;99.90
7658;DHT22;8462;53.156;8.220;2023-07-20T04:35:06;17.30;99.90
7658;DHT22;8462;53.156;8.220;2023-07-20T04:37:36;17.30;99.90
7658;DHT22;8462;53.156;8.220;2023-07-20T04:40:05;17.40;99.90
7658;DHT22;8462;53.156;8.220;2023-07-20T04:42:34;17.40;99.90
7658;DHT22;8462;53.156;8.220;2023-07-20T04:45:01;17.40;99.90
7658;DHT22;8462;53.156;8.220;2023-07-20T04:47:28;17.50;99.90
7658;DHT22;8462;53.156;8.220;2023-07-20T04:49:55;17.60;99.90
7658;DHT22;8462;53.156;8.220;2023-07-20T04:52:22;17.60;99.90
7658;DHT22;8462;53.156;8.220;2023-07-20T04:54:50;17.70;99.90
7658;DHT22;8462;53.156;8.220;2023-07-20T04:57:19;17.80;99.90
7658;DHT22;8462;53.156;8.220;2023-07-20T04:59:51;17.90;99.90
7658;DHT22;8462;53.156;8.220;2023-07-20T05:02:18;18.00;99.90
7658;DHT22;8462;53.156;8.220;2023-07-20T05:04:45;18.20;99.90
7658;DHT22;8462;53.156;8.220;2023-07-20T05:07:12;18.40;99.90
7658;DHT22;8462;53.156;8.220;2023-07-20T05:09:39;18.50;99.90
7658;DHT22;8462;53.156;8.220;2023-07-20T05:12:07;18.70;99.90
7658;DHT22;8462;53.156;8.220;2023-07-20T05:14:34;19.10;99.90
7658;DHT22;8462;53.156;8.220;2023-07-20T05:17:02;20.00;99.90
7658;DHT22;8462;53.156;8.220;2023-07-20T05:19:29;21.20;98.70
7658;DHT22;8462;53.156;8.220;2023-07-20T05:21:56;22.40;96.20
7658;DHT22;8462;53.156;8.220;2023-07-20T05:24:23;23.60;93.20
7658;DHT22;8462;53.156;8.220;2023-07-20T05:26:50;24.50;91.10
7658;DHT22;8462;53.156;8.220;2023-07-20T05:29:17;25.30;90.20
7658;DHT22;8462;53.156;8.220;2023-07-20T05:31:43;26.10;86.40
7658;DHT22;8462;53.156;8.220;2023-07-20T05:34:12;26.80;83.60
7658;DHT22;8462;53.156;8.220;2023-07-20T05:36:39;27.30;80.40
7658;DHT22;8462;53.156;8.220;2023-07-20T05:39:06;27.90;78.80
7658;DHT22;8462;53.156;8.220;2023-07-20T05:41:33;28.20;75.30
7658;DHT22;8462;53.156;8.220;2023-07-20T05:44:00;28.70;75.40
7658;DHT22;8462;53.156;8.220;2023-07-20T05:46:26;28.90;70.80
7658;DHT22;8462;53.156;8.220;2023-07-20T05:48:53;29.10;70.80
7658;DHT22;8462;53.156;8.220;2023-07-20T05:51:22;29.30;70.70
7658;DHT22;8462;53.156;8.220;2023-07-20T05:53:48;29.70;68.40
7658;DHT22;8462;53.156;8.220;2023-07-20T05:56:15;29.90;66.60
7658;DHT22;8462;53.156;8.220;2023-07-20T05:58:42;30.20;65.90
7658;DHT22;8462;53.156;8.220;2023-07-20T06:01:09;30.20;65.80
7658;DHT22;8462;53.156;8.220;2023-07-20T06:03:36;30.40;65.00
7658;DHT22;8462;53.156;8.220;2023-07-20T06:06:04;30.60;63.80
7658;DHT22;8462;53.156;8.220;2023-07-20T06:08:33;30.80;63.60
7658;DHT22;8462;53.156;8.220;2023-07-20T06:11:00;31.10;62.30
7658;DHT22;8462;53.156;8.220;2023-07-20T06:13:28;31.40;60.90
7658;DHT22;8462;53.156;8.220;2023-07-20T06:15:55;31.50;59.60
7658;DHT22;8462;53.156;8.220;2023-07-20T06:18:22;31.40;58.60
7658;DHT22;8462;53.156;8.220;2023-07-20T06:20:49;31.00;57.60
7658;DHT22;8462;53.156;8.220;2023-07-20T06:23:17;30.00;59.00
7658;DHT22;8462;53.156;8.220;2023-07-20T06:25:45;29.10;61.40
7658;DHT22;8462;53.156;8.220;2023-07-20T06:28:13;28.20;63.80
7658;DHT22;8462;53.156;8.220;2023-07-20T06:30:40;27.30;65.20
7658;DHT22;8462;53.156;8.220;2023-07-20T06:33:07;26.50;67.00
7658;DHT22;8462;53.156;8.220;2023-07-20T06:35:34;26.10;70.00
7658;DHT22;8462;53.156;8.220;2023-07-20T06:38:01;26.20;71.30
7658;DHT22;8462;53.156;8.220;2023-07-20T06:40:29;26.90;71.70
7658;DHT22;8462;53.156;8.220;2023-07-20T06:42:58;27.40;68.80
7658;DHT22;8462;53.156;8.220;2023-07-20T06:45:25;27.60;68.00
7658;DHT22;8462;53.156;8.220;2023-07-20T06:47:53;27.70;67.70
7658;DHT22;8462;53.156;8.220;2023-07-20T06:50:20;28.00;67.10
7658;DHT22;8462;53.156;8.220;2023-07-20T06:52:47;27.90;65.30
7658;DHT22;8462;53.156;8.220;2023-07-20T06:55:14;27.90;66.40
7658;DHT22;8462;53.156;8.220;2023-07-20T06:57:41;28.30;66.80
7658;DHT22;8462;53.156;8.220;2023-07-20T07:00:13;28.70;66.00
7658;DHT22;8462;53.156;8.220;2023-07-20T07:02:41;29.10;63.90
7658;DHT22;8462;53.156;8.220;2023-07-20T07:05:08;29.50;64.30
7658;DHT22;8462;53.156;8.220;2023-07-20T07:07:35;29.80;61.80
7658;DHT22;8462;53.156;8.220;2023-07-20T07:10:02;30.20;60.90
7658;DHT22;8462;53.156;8.220;2023-07-20T07:12:30;30.00;58.70
7658;DHT22;8462;53.156;8.220;2023-07-20T07:14:57;30.00;60.50
7658;DHT22;8462;53.156;8.220;2023-07-20T07:17:27;30.10;59.00
7658;DHT22;8462;53.156;8.220;2023-07-20T07:19:55;29.60;58.00
7658;DHT22;8462;53.156;8.220;2023-07-20T07:22:22;29.10;59.80
7658;DHT22;8462;53.156;8.220;2023-07-20T07:24:49;29.10;59.50
7658;DHT22;8462;53.156;8.220;2023-07-20T07:27:18;29.20;59.90
7658;DHT22;8462;53.156;8.220;2023-07-20T07:29:45;29.30;58.70
7658;DHT22;8462;53.156;8.220;2023-07-20T07:32:15;29.30;58.60
7658;DHT22;8462;53.156;8.220;2023-07-20T07:34:43;29.30;59.40
7658;DHT22;8462;53.156;8.220;2023-07-20T07:37:12;29.30;57.30
7658;DHT22;8462;53.156;8.220;2023-07-20T07:39:39;29.20;58.40
7658;DHT22;8462;53.156;8.220;2023-07-20T07:42:06;29.50;56.70
7658;DHT22;8462;53.156;8.220;2023-07-20T07:44:33;29.70;55.10
7658;DHT22;8462;53.156;8.220;2023-07-20T07:47:00;29.60;56.20
7658;DHT22;8462;53.156;8.220;2023-07-20T07:49:28;29.20;55.10
7658;DHT22;8462;53.156;8.220;2023-07-20T07:51:57;28.10;56.00
7658;DHT22;8462;53.156;8.220;2023-07-20T07:54:24;27.10;58.20
7658;DHT22;8462;53.156;8.220;2023-07-20T07:56:51;26.30;60.00
7658;DHT22;8462;53.156;8.220;2023-07-20T07:59:18;25.90;62.00
7658;DHT22;8462;53.156;8.220;2023-07-20T08:01:45;25.50;63.20
7658;DHT22;8462;53.156;8.220;2023-07-20T08:04:12;25.10;64.10
7658;DHT22;8462;53.156;8.220;2023-07-20T08:06:39;24.70;65.70
7658;DHT22;8462;53.156;8.220;2023-07-20T08:09:07;24.30;65.10
7658;DHT22;8462;53.156;8.220;2023-07-20T08:11:34;24.00;66.40
7658;DHT22;8462;53.156;8.220;2023-07-20T08:14:02;23.80;67.50
7658;DHT22;8462;53.156;8.220;2023-07-20T08:16:29;23.70;68.30
7658;DHT22;8462;53.156;8.220;2023-07-20T08:18:56;23.70;68.50
7658;DHT22;8462;53.156;8.220;2023-07-20T08:21:23;23.80;70.40
7658;DHT22;8462;53.156;8.220;2023-07-20T08:23:50;23.80;69.50
7658;DHT22;8462;53.156;8.220;2023-07-20T08:26:24;23.70;69.10
7658;DHT22;8462;53.156;8.220;2023-07-20T08:28:51;23.50;68.40
7658;DHT22;8462;53.156;8.220;2023-07-20T08:31:19;23.30;67.70
7658;DHT22;8462;53.156;8.220;2023-07-20T08:33:47;23.20;69.40
7658;DHT22;8462;53.156;8.220;2023-07-20T08:36:14;23.30;71.10
7658;DHT22;8462;53.156;8.220;2023-07-20T08:38:41;23.30;70.80
7658;DHT22;8462;53.156;8.220;2023-07-20T08:41:09;23.50;71.10
7658;DHT22;8462;53.156;8.220;2023-07-20T08:43:38;23.60;70.40
7658;DHT22;8462;53.156;8.220;2023-07-20T08:46:05;23.50;71.00
7658;DHT22;8462;53.156;8.220;2023-07-20T08:48:33;23.60;70.40
7658;DHT22;8462;53.156;8.220;2023-07-20T08:51:01;23.70;70.20
7658;DHT22;8462;53.156;8.220;2023-07-20T08:53:31;23.70;71.20
7658;DHT22;8462;53.156;8.220;2023-07-20T08:55:59;23.80;70.70
7658;DHT22;8462;53.156;8.220;2023-07-20T08:58:34;23.80;70.20
7658;DHT22;8462;53.156;8.220;2023-07-20T09:01:04;23.90;68.10
7658;DHT22;8462;53.156;8.220;2023-07-20T09:03:31;24.10;68.80
7658;DHT22;8462;53.156;8.220;2023-07-20T09:06:00;24.50;69.10
7658;DHT22;8462;53.156;8.220;2023-07-20T09:08:27;24.70;67.20
7658;DHT22;8462;53.156;8.220;2023-07-20T09:10:54;24.70;66.00
7658;DHT22;8462;53.156;8.220;2023-07-20T09:13:21;24.40;66.60
7658;DHT22;8462;53.156;8.220;2023-07-20T09:15:53;24.00;68.60
7658;DHT22;8462;53.156;8.220;2023-07-20T09:18:29;23.50;74.70
7658;DHT22;8462;53.156;8.220;2023-07-20T09:21:02;23.20;78.40
7658;DHT22;8462;53.156;8.220;2023-07-20T09:23:32;22.70;82.40
7658;DHT22;8462;53.156;8.220;2023-07-20T09:26:00;22.40;82.90
7658;DHT22;8462;53.156;8.220;2023-07-20T09:28:28;22.20;83.60
7658;DHT22;8462;53.156;8.220;2023-07-20T09:30:55;22.10;84.40
7658;DHT22;8462;53.156;8.220;2023-07-20T09:33:24;22.20;85.10
7658;DHT22;8462;53.156;8.220;2023-07-20T09:35:53;22.30;84.40
7658;DHT22;8462;53.156;8.220;2023-07-20T09:38:20;22.60;84.00
7658;DHT22;8462;53.156;8.220;2023-07-20T09:40:50;22.90;83.70
7658;DHT22;8462;53.156;8.220;2023-07-20T09:43:17;23.10;81.00
7658;DHT22;8462;53.156;8.220;2023-07-20T09:45:45;23.30;78.60
7658;DHT22;8462;53.156;8.220;2023-07-20T09:48:12;23.40;77.30
7658;DHT22;8462;53.156;8.220;2023-07-20T09:50:40;23.50;75.80
7658;DHT22;8462;53.156;8.220;2023-07-20T09:53:12;23.40;76.70
7658;DHT22;8462;53.156;8.220;2023-07-20T09:55:41;23.40;77.30
7658;DHT22;8462;53.156;8.220;2023-07-20T09:58:12;23.40;76.00
7658;DHT22;8462;53.156;8.220;2023-07-20T10:00:40;23.50;75.80
7658;DHT22;8462;53.156;8.220;2023-07-20T10:03:10;23.40;76.40
7658;DHT22;8462;53.156;8.220;2023-07-20T10:05:43;23.50;79.30
7658;DHT22;8462;53.156;8.220;2023-07-20T10:08:13;23.70;78.70
7658;DHT22;8462;53.156;8.220;2023-07-20T10:10:42;23.90;76.50
7658;DHT22;8462;53.156;8.220;2023-07-20T10:13:14;24.10;77.20
7658;DHT22;8462;53.156;8.220;2023-07-20T10:15:46;24.40;74.60
7658;DHT22;8462;53.156;8.220;2023-07-20T10:18:18;24.60;74.50
7658;DHT22;8462;53.156;8.220;2023-07-20T10:20:51;24.80;74.50
7658;DHT22;8462;53.156;8.220;2023-07-20T10:23:19;25.10;75.10
7658;DHT22;8462;53.156;8.220;2023-07-20T10:25:50;25.40;73.60
7658;DHT22;8462;53.156;8.220;2023-07-20T10:28:17;25.40;71.90
7658;DHT22;8462;53.156;8.220;2023-07-20T10:30:44;25.20;71.90
7658;DHT22;8462;53.156;8.220;2023-07-20T10:33:12;24.90;70.70
7658;DHT22;8462;53.156;8.220;2023-07-20T10:35:54;24.60;69.80
7658;DHT22;8462;53.156;8.220;2023-07-20T10:38:53;24.60;67.60
7658;DHT22;8462;53.156;8.220;2023-07-20T10:41:27;24.50;67.90
7658;DHT22;8462;53.156;8.220;2023-07-20T10:44:01;24.50;68.20
7658;DHT22;8462;53.156;8.220;2023-07-20T10:46:46;24.50;66.20
7658;DHT22;8462;53.156;8.220;2023-07-20T10:49:19;24.50;66.20
7658;DHT22;8462;53.156;8.220;2023-07-20T10:51:58;24.50;64.60
7658;DHT22;8462;53.156;8.220;2023-07-20T10:54:48;24.70;64.00
7658;DHT22;8462;53.156;8.220;2023-07-20T10:57:32;24.80;63.50
7658;DHT22;8462;53.156;8.220;2023-07-20T11:00:11;25.00;63.30
7658;DHT22;8462;53.156;8.220;2023-07-20T11:02:45;25.20;63.10
7658;DHT22;8462;53.156;8.220;2023-07-20T11:05:36;25.20;60.60
7658;DHT22;8462;53.156;8.220;2023-07-20T11:08:12;25.50;61.70
7658;DHT22;8462;53.156;8.220;2023-07-20T11:10:40;25.70;61.00
7658;DHT22;8462;53.156;8.220;2023-07-20T11:13:19;25.90;59.60
7658;DHT22;8462;53.156;8.220;2023-07-20T11:15:52;26.10;58.70
7658;DHT22;8462;53.156;8.220;2023-07-20T11:18:27;26.30;59.20
7658;DHT22;8462;53.156;8.220;2023-07-20T11:20:55;26.50;59.80
7658;DHT22;8462;53.156;8.220;2023-07-20T11:23:22;26.50;59.00
7658;DHT22;8462;53.156;8.220;2023-07-20T11:25:53;26.30;57.60
7658;DHT22;8462;53.156;8.220;2023-07-20T11:28:20;26.10;57.10
7658;DHT22;8462;53.156;8.220;2023-07-20T11:30:52;26.00;57.30
7658;DHT22;8462;53.156;8.220;2023-07-20T11:33:21;25.80;59.80
7658;DHT22;8462;53.156;8.220;2023-07-20T11:35:49;25.50;61.70
7658;DHT22;8462;53.156;8.220;2023-07-20T11:38:20;25.10;63.40
7658;DHT22;8462;53.156;8.220;2023-07-20T11:40:47;24.90;64.30
7658;DHT22;8462;53.156;8.220;2023-07-20T11:43:15;24.80;64.20
7658;DHT22;8462;53.156;8.220;2023-07-20T11:45:45;24.70;65.30
7658;DHT22;8462;53.156;8.220;2023-07-20T11:48:15;24.70;65.90
7658;DHT22;8462;53.156;8.220;2023-07-20T11:50:42;24.70;65.30
7658;DHT22;8462;53.156;8.220;2023-07-20T11:53:09;24.60;65.40
7658;DHT22;8462;53.156;8.220;2023-07-20T11:55:36;24.40;65.50
7658;DHT22;8462;53.156;8.220;2023-07-20T11:58:05;24.20;66.10
7658;DHT22;8462;53.156;8.220;2023-07-20T12:00:35;24.10;67.10
7658;DHT22;8462;53.156;8.220;2023-07-20T12:03:05;24.00;67.30
7658;DHT22;8462;53.156;8.220;2023-07-20T12:05:33;23.90;67.80
7658;DHT22;8462;53.156;8.220;2023-07-20T12:08:00;23.90;66.70
7658;DHT22;8462;53.156;8.220;2023-07-20T12:10:28;24.00;66.10
7658;DHT22;8462;53.156;8.220;2023-07-20T12:13:01;24.10;65.90
7658;DHT22;8462;53.156;8.220;2023-07-20T12:15:29;24.20;64.80
7658;DHT22;8462;53.156;8.220;2023-07-20T12:18:00;24.20;65.10
7658;DHT22;8462;53.156;8.220;2023-07-20T12:20:29;24.30;65.50
7658;DHT22;8462;53.156;8.220;2023-07-20T12:22:58;24.40;65.10
7658;DHT22;8462;53.156;8.220;2023-07-20T12:25:39;24.30;63.60
7658;DHT22;8462;53.156;8.220;2023-07-20T12:28:08;24.10;65.40
7658;DHT22;8462;53.156;8.220;2023-07-20T12:30:36;23.90;64.70
7658;DHT22;8462;53.156;8.220;2023-07-20T12:33:06;23.80;63.50
7658;DHT22;8462;53.156;8.220;2023-07-20T12:35:37;23.70;65.20
7658;DHT22;8462;53.156;8.220;2023-07-20T12:38:04;23.70;65.70
7658;DHT22;8462;53.156;8.220;2023-07-20T12:40:31;23.80;65.00
7658;DHT22;8462;53.156;8.220;2023-07-20T12:42:58;23.80;64.70
7658;DHT22;8462;53.156;8.220;2023-07-20T12:45:25;23.90;64.80
7658;DHT22;8462;53.156;8.220;2023-07-20T12:47:53;24.00;65.10
7658;DHT22;8462;53.156;8.220;2023-07-20T12:50:22;24.00;65.70
7658;DHT22;8462;53.156;8.220;2023-07-20T12:52:49;24.00;65.20
7658;DHT22;8462;53.156;8.220;2023-07-20T12:55:16;23.90;64.90
7658;DHT22;8462;53.156;8.220;2023-07-20T12:57:43;24.00;63.20
7658;DHT22;8462;53.156;8.220;2023-07-20T13:00:11;24.10;64.80
7658;DHT22;8462;53.156;8.220;2023-07-20T13:02:38;24.20;65.50
7658;DHT22;8462;53.156;8.220;2023-07-20T13:05:06;24.30;65.20
7658;DHT22;8462;53.156;8.220;2023-07-20T13:07:35;24.30;64.70
7658;DHT22;8462;53.156;8.220;2023-07-20T13:10:03;24.30;65.30
7658;DHT22;8462;53.156;8.220;2023-07-20T13:12:34;24.40;65.00
7658;DHT22;8462;53.156;8.220;2023-07-20T13:15:04;24.20;64.40
7658;DHT22;8462;53.156;8.220;2023-07-20T13:17:33;24.10;65.20
7658;DHT22;8462;53.156;8.220;2023-07-20T13:20:00;23.90;65.60
7658;DHT22;8462;53.156;8.220;2023-07-20T13:22:28;23.90;65.30
7658;DHT22;8462;53.156;8.220;2023-07-20T13:24:58;23.70;65.60
7658;DHT22;8462;53.156;8.220;2023-07-20T13:27:26;23.70;66.70
7658;DHT22;8462;53.156;8.220;2023-07-20T13:29:53;23.80;66.90
7658;DHT22;8462;53.156;8.220;2023-07-20T13:32:23;23.90;66.10
7658;DHT22;8462;53.156;8.220;2023-07-20T13:34:50;23.90;66.60
7658;DHT22;8462;53.156;8.220;2023-07-20T13:37:18;24.10;65.10
7658;DHT22;8462;53.156;8.220;2023-07-20T13:39:45;24.10;64.20
7658;DHT22;8462;53.156;8.220;2023-07-20T13:42:13;24.10;62.40
7658;DHT22;8462;53.156;8.220;2023-07-20T13:44:40;24.00;61.60
7658;DHT22;8462;53.156;8.220;2023-07-20T13:47:07;24.00;62.30
7658;DHT22;8462;53.156;8.220;2023-07-20T13:49:34;24.10;61.40
7658;DHT22;8462;53.156;8.220;2023-07-20T13:52:02;24.10;63.50
7658;DHT22;8462;53.156;8.220;2023-07-20T13:54:29;23.90;66.00
7658;DHT22;8462;53.156;8.220;2023-07-20T13:56:58;23.80;66.60
7658;DHT22;8462;53.156;8.220;2023-07-20T13:59:26;23.70;67.30
7658;DHT22;8462;53.156;8.220;2023-07-20T14:01:59;23.60;67.20
7658;DHT22;8462;53.156;8.220;2023-07-20T14:04:29;23.70;68.60
7658;DHT22;8462;53.156;8.220;2023-07-20T14:06:59;23.90;67.90
7658;DHT22;8462;53.156;8.220;2023-07-20T14:09:27;24.10;66.20
7658;DHT22;8462;53.156;8.220;2023-07-20T14:11:54;24.10;65.70
7658;DHT22;8462;53.156;8.220;2023-07-20T14:14:21;24.10;65.50
7658;DHT22;8462;53.156;8.220;2023-07-20T14:16:49;24.20;64.50
7658;DHT22;8462;53.156;8.220;2023-07-20T14:19:16;24.10;65.10
7658;DHT22;8462;53.156;8.220;2023-07-20T14:21:43;24.00;64.40
7658;DHT22;8462;53.156;8.220;2023-07-20T14:24:10;24.00;64.80
7658;DHT22;8462;53.156;8.220;2023-07-20T14:26:38;24.10;65.00
7658;DHT22;8462;53.156;8.220;2023-07-20T14:29:06;24.20;64.80
7658;DHT22;8462;53.156;8.220;2023-07-20T14:31:33;24.20;65.20
7658;DHT22;8462;53.156;8.220;2023-07-20T14:34:06;24.40;64.30
7658;DHT22;8462;53.156;8.220;2023-07-20T14:36:32;24.50;63.10
7658;DHT22;8462;53.156;8.220;2023-07-20T14:38:59;24.30;64.30
7658;DHT22;8462;53.156;8.220;2023-07-20T14:41:26;24.20;65.00
7658;DHT22;8462;53.156;8.220;2023-07-20T14:43:53;24.10;64.90
7658;DHT22;8462;53.156;8.220;2023-07-20T14:46:21;23.90;65.70
7658;DHT22;8462;53.156;8.220;2023-07-20T14:48:49;23.70;66.00
7658;DHT22;8462;53.156;8.220;2023-07-20T14:51:19;23.60;66.50
7658;DHT22;8462;53.156;8.220;2023-07-20T14:53:52;23.50;66.90
7658;DHT22;8462;53.156;8.220;2023-07-20T14:56:18;23.50;66.90
7658;DHT22;8462;53.156;8.220;2023-07-20T14:58:45;23.50;67.40
7658;DHT22;8462;53.156;8.220;2023-07-20T15:01:12;23.60;67.50
7658;DHT22;8462;53.156;8.220;2023-07-20T15:03:41;23.70;68.30
7658;DHT22;8462;53.156;8.220;2023-07-20T15:06:10;23.80;67.30
7658;DHT22;8462;53.156;8.220;2023-07-20T15:08:41;23.90;66.50
7658;DHT22;8462;53.156;8.220;2023-07-20T15:11:09;24.10;66.20
7658;DHT22;8462;53.156;8.220;2023-07-20T15:13:35;24.20;65.10
7658;DHT22;8462;53.156;8.220;2023-07-20T15:16:03;24.20;65.10
7658;DHT22;8462;53.156;8.220;2023-07-20T15:18:30;24.10;64.90
7658;DHT22;8462;53.156;8.220;2023-07-20T15:20:57;23.90;64.30
7658;DHT22;8462;53.156;8.220;2023-07-20T15:23:23;23.90;64.90
7658;DHT22;8462;53.156;8.220;2023-07-20T15:25:52;23.80;64.90
7658;DHT22;8462;53.156;8.220;2023-07-20T15:28:18;23.70;65.00
7658;DHT22;8462;53.156;8.220;2023-07-20T15:30:45;23.50;65.10
7658;DHT22;8462;53.156;8.220;2023-07-20T15:33:12;23.30;65.50
7658;DHT22;8462;53.156;8.220;2023-07-20T15:35:39;23.20;66.30
7658;DHT22;8462;53.156;8.220;2023-07-20T15:38:06;23.10;67.30
7658;DHT22;8462;53.156;8.220;2023-07-20T15:40:33;23.00;68.80
7658;DHT22;8462;53.156;8.220;2023-07-20T15:43:01;22.90;69.70
7658;DHT22;8462;53.156;8.220;2023-07-20T15:45:28;22.80;69.70
7658;DHT22;8462;53.156;8.220;2023-07-20T15:47:56;22.90;70.70
7658;DHT22;8462;53.156;8.220;2023-07-20T15:50:23;22.90;71.60
7658;DHT22;8462;53.156;8.220;2023-07-20T15:52:50;22.80;73.70
7658;DHT22;8462;53.156;8.220;2023-07-20T15:55:18;22.70;78.20
7658;DHT22;8462;53.156;8.220;2023-07-20T15:57:45;22.20;85.10
7658;DHT22;8462;53.156;8.220;2023-07-20T16:00:14;21.80;88.10
7658;DHT22;8462;53.156;8.220;2023-07-20T16:02:41;21.50;90.50
7658;DHT22;8462;53.156;8.220;2023-07-20T16:05:08;21.20;91.10
7658;DHT22;8462;53.156;8.220;2023-07-20T16:07:35;21.00;92.70
7658;DHT22;8462;53.156;8.220;2023-07-20T16:10:03;20.90;92.60
7658;DHT22;8462;53.156;8.220;2023-07-20T16:12:31;20.80;93.00
7658;DHT22;8462;53.156;8.220;2023-07-20T16:14:58;20.80;93.20